Time;durP1;ratioP1;P1;durP2;ratioP2;P2;SDS_P1;SDS_P2;PMS_P1;PMS_P2;Temp;Humidity;BMP_temperature;BMP_pressure;BME280_temperature;BME280_humidity;BME280_pressure;Samples;Min_cycle;Max_cycle;Signal;HPM_P1;HPM_P2
2023/01/11 00:00:30;;;;;;;3.05;2.00;;;;;;;10.45;86.50;100631.06;5029564;28;20033;-92
2023/01/11 00:03:01;;;;;;;3.38;2.25;;;;;;;10.44;86.35;100634.63;5018351;28;20021;-91
2023/01/11 00:05:26;;;;;;;2.35;2.15;;;;;;;10.50;85.89;100644.94;5030342;28;20037;-92
2023/01/11 00:07:51;;;;;;;3.60;2.33;;;;;;;10.59;85.88;100639.28;5007691;28;20068;-91
2023/01/11 00:10:18;;;;;;;3.78;2.05;;;;;;;10.65;85.87;100636.34;5028440;28;20507;-91
2023/01/11 00:12:43;;;;;;;3.72;2.20;;;;;;;10.86;84.59;100633.66;5032869;28;20030;-92
2023/01/11 00:15:09;;;;;;;3.22;2.17;;;;;;;10.75;85.13;100635.94;5010518;28;20551;-91
2023/01/11 00:17:35;;;;;;;4.32;2.05;;;;;;;10.73;85.09;100615.72;5007217;28;20554;-92
2023/01/11 00:20:00;;;;;;;2.85;1.70;;;;;;;10.88;84.62;100656.50;5007953;28;20064;-91
2023/01/11 00:22:26;;;;;;;3.20;1.90;;;;;;;10.80;84.50;100623.38;5012172;28;20474;-92
2023/01/11 00:24:51;;;;;;;1.67;1.58;;;;;;;10.90;84.19;100614.09;5029637;28;20499;-91
2023/01/11 00:27:16;;;;;;;4.78;2.15;;;;;;;11.01;83.68;100611.84;5027831;28;20026;-91
2023/01/11 00:29:42;;;;;;;2.85;1.80;;;;;;;10.97;84.11;100612.91;5009742;28;20032;-91
2023/01/11 00:32:07;;;;;;;3.15;1.98;;;;;;;11.06;83.89;100607.19;5031841;28;20044;-91
2023/01/11 00:34:32;;;;;;;2.10;1.70;;;;;;;11.06;83.82;100603.69;5029679;28;20277;-91
2023/01/11 00:36:57;;;;;;;4.10;1.60;;;;;;;11.08;83.37;100593.88;5031697;28;20029;-92
2023/01/11 00:39:23;;;;;;;1.52;1.35;;;;;;;11.04;83.87;100610.81;5025941;28;20025;-92
2023/01/11 00:50:01;;;;;;;1.50;1.40;;;;;;;10.70;87.76;100605.28;5029235;28;20047;-92
2023/01/11 00:52:26;;;;;;;2.50;1.70;;;;;;;10.63;88.62;100597.66;5008622;28;20044;-91
2023/01/11 00:54:51;;;;;;;3.88;1.67;;;;;;;10.58;89.08;100589.09;5002147;28;20033;-92
2023/01/11 00:57:17;;;;;;;2.10;1.85;;;;;;;10.67;88.41;100604.53;5022327;28;20044;-92
2023/01/11 00:59:43;;;;;;;4.32;1.80;;;;;;;10.69;88.26;100597.41;5027869;28;20556;-91
2023/01/11 01:02:10;;;;;;;3.38;2.08;;;;;;;10.65;89.19;100612.56;5030230;28;20029;-92
2023/01/11 01:04:36;;;;;;;3.97;1.63;;;;;;;10.68;89.29;100593.91;5028555;28;20108;-93
2023/01/11 01:07:02;;;;;;;2.28;1.60;;;;;;;10.69;90.14;100597.41;5011281;28;20161;-93
2023/01/11 01:09:27;;;;;;;4.50;2.20;;;;;;;10.64;90.16;100581.75;5010912;28;20022;-94
2023/01/11 01:11:52;;;;;;;4.30;2.20;;;;;;;10.35;91.28;100598.00;5022753;28;20024;-93
2023/01/11 01:14:31;;;;;;;2.03;1.83;;;;;;;10.38;91.62;100592.59;5011506;28;20033;-93
2023/01/11 01:17:06;;;;;;;4.28;1.95;;;;;;;10.44;90.97;100584.41;5030250;28;20029;-92
2023/01/11 01:19:33;;;;;;;1.98;1.77;;;;;;;10.33;92.49;100597.25;5012139;28;20045;-93
2023/01/11 01:21:59;;;;;;;2.55;2.05;;;;;;;10.97;90.36;100599.69;5013363;28;20691;-92
2023/01/11 01:24:29;;;;;;;3.22;2.20;;;;;;;11.34;88.04;100590.88;5010243;28;20148;-92
2023/01/11 01:26:56;;;;;;;3.40;2.20;;;;;;;10.70;90.27;100585.91;5027644;28;20059;-92
2023/01/11 01:29:22;;;;;;;3.38;2.50;;;;;;;10.92;89.75;100586.66;5029256;28;20503;-93
2023/01/11 01:31:47;;;;;;;3.55;2.65;;;;;;;10.84;90.66;100598.50;5011076;28;20030;-92
2023/01/11 01:34:12;;;;;;;3.95;2.53;;;;;;;10.99;90.83;100590.72;5027047;28;20108;-92
2023/01/11 01:36:38;;;;;;;6.05;3.10;;;;;;;10.98;91.42;100598.75;5028810;28;20083;-92
2023/01/11 01:39:05;;;;;;;7.25;2.50;;;;;;;11.04;91.74;100592.31;5024447;28;20060;-92
2023/01/11 01:41:31;;;;;;;4.05;2.97;;;;;;;10.71;93.69;100584.97;5026968;28;20044;-91
2023/01/11 01:44:01;;;;;;;3.80;3.15;;;;;;;10.98;92.32;100604.03;5025956;28;20049;-91
2023/01/11 01:46:29;;;;;;;4.00;2.42;;;;;;;10.86;91.75;100591.34;5028880;28;20428;-91
2023/01/11 01:49:03;;;;;;;3.38;2.70;;;;;;;11.07;92.87;100594.81;5016873;28;20030;-92
2023/01/11 01:51:38;;;;;;;7.10;2.90;;;;;;;11.07;91.00;100592.19;5004023;28;20033;-93
2023/01/11 01:54:07;;;;;;;3.22;2.92;;;;;;;10.80;93.28;100594.28;5010617;28;20033;-93
2023/01/11 01:56:41;;;;;;;6.68;2.53;;;;;;;11.42;90.33;100587.84;5025962;28;20116;-92
2023/01/11 01:59:11;;;;;;;4.32;2.90;;;;;;;10.87;93.10;100591.31;5026820;28;20040;-91
2023/01/11 02:01:47;;;;;;;5.43;3.10;;;;;;;10.87;93.97;100587.81;5024936;28;20025;-92
2023/01/11 02:04:29;;;;;;;5.57;3.35;;;;;;;11.40;91.06;100600.31;5026821;28;20044;-91
2023/01/11 02:07:00;;;;;;;2.33;2.15;;;;;;;10.94;92.63;100586.59;5009916;28;20021;-92
2023/01/11 02:09:35;;;;;;;4.78;2.42;;;;;;;10.89;94.25;100593.88;5027715;28;20033;-91
2023/01/11 02:12:01;;;;;;;6.38;2.80;;;;;;;10.89;94.04;100578.84;5026469;28;20033;-92
2023/01/11 02:14:29;;;;;;;4.25;2.83;;;;;;;10.85;95.09;100574.63;5025366;28;20068;-93
2023/01/11 02:16:55;;;;;;;5.10;2.72;;;;;;;10.92;95.39;100580.53;5010444;28;20029;-90
2023/01/11 02:19:59;;;;;;;4.18;2.60;;;;;;;10.95;95.50;100599.72;5021440;28;20437;-94
2023/01/11 02:22:49;;;;;;;3.63;2.58;;;;;;;11.17;94.38;100578.44;5023460;28;20088;-92
2023/01/11 02:25:33;;;;;;;3.65;2.50;;;;;;;11.06;94.96;100586.03;5016796;28;20041;-92
2023/01/11 02:28:25;;;;;;;4.75;2.60;;;;;;;11.07;95.28;100577.16;5014180;28;20032;-92
2023/01/11 02:31:15;;;;;;;3.28;2.30;;;;;;;11.05;95.33;100594.00;5028995;28;20076;-92
2023/01/11 02:34:01;;;;;;;2.28;1.65;;;;;;;11.08;95.11;100576.22;5023798;28;20029;-92
2023/01/11 02:36:37;;;;;;;3.10;1.95;;;;;;;11.09;95.40;100585.88;5012393;28;20116;-93
2023/01/11 02:39:47;;;;;;;2.65;1.90;;;;;;;11.13;95.46;100584.81;5019817;28;20033;-93
2023/01/11 02:45:45;;;;;;;2.17;1.60;;;;;;;11.14;95.40;100562.69;5025122;28;20088;-93
2023/01/11 02:48:10;;;;;;;2.33;1.70;;;;;;;11.14;95.31;100575.94;5000086;28;20391;-93
2023/01/11 02:51:09;;;;;;;2.40;1.50;;;;;;;11.17;95.40;100570.50;5030914;28;20029;-93
2023/01/11 02:53:42;;;;;;;2.47;1.50;;;;;;;11.16;95.27;100571.44;5011699;28;20293;-92
2023/01/11 02:56:15;;;;;;;1.75;1.38;;;;;;;11.84;91.95;100579.66;5030203;28;20055;-93
2023/01/11 02:58:43;;;;;;;4.30;1.83;;;;;;;12.03;91.11;100563.72;5012105;28;20055;-92
2023/01/11 03:01:09;;;;;;;2.03;1.70;;;;;;;11.32;94.20;100560.97;5023712;28;20124;-93
2023/01/11 03:03:35;;;;;;;2.38;2.17;;;;;;;11.27;94.79;100564.78;5029390;28;20060;-92
2023/01/11 03:06:10;;;;;;;1.90;1.77;;;;;;;11.35;95.77;100571.44;5031804;28;20056;-92
2023/01/11 03:08:53;;;;;;;4.93;1.75;;;;;;;11.38;95.94;100573.94;5026999;28;20495;-92
2023/01/11 03:14:43;;;;;;;1.45;1.20;;;;;;;11.44;95.20;100565.69;5028226;28;20361;-93
2023/01/11 03:17:21;;;;;;;3.03;1.42;;;;;;;11.45;95.28;100556.81;5030284;28;20445;-92
2023/01/11 03:19:52;;;;;;;3.42;1.80;;;;;;;11.37;95.53;100551.03;5007287;28;20033;-93
2023/01/11 03:22:27;;;;;;;4.00;1.65;;;;;;;11.39;95.18;100550.97;5011557;28;20030;-94
2023/01/11 03:25:28;;;;;;;1.95;1.70;;;;;;;11.47;95.66;100556.72;5030203;28;20033;-92
2023/01/11 03:28:14;;;;;;;1.95;1.65;;;;;;;11.47;95.51;100559.38;5010692;28;20052;-92
2023/01/11 03:30:48;;;;;;;2.83;1.52;;;;;;;11.40;95.41;100561.47;5011380;28;20052;-92
2023/01/11 03:33:25;;;;;;;2.95;1.83;;;;;;;11.45;95.69;100555.97;5025617;28;20401;-91
2023/01/11 03:36:23;;;;;;;1.25;1.17;;;;;;;11.48;95.24;100555.81;5011189;28;20025;-92
2023/01/11 03:39:04;;;;;;;2.95;1.83;;;;;;;11.49;95.01;100561.03;5016548;28;20402;-92
2023/01/11 03:41:34;;;;;;;3.55;1.52;;;;;;;11.49;95.01;100568.97;5030897;28;20037;-92
2023/01/11 03:44:03;;;;;;;2.10;1.67;;;;;;;11.49;95.06;100570.75;5009612;28;21480;-93
2023/01/11 03:46:33;;;;;;;1.13;1.10;;;;;;;11.58;95.15;100575.63;5010723;28;20033;-92
2023/01/11 03:49:07;;;;;;;1.75;1.60;;;;;;;11.53;95.62;100556.44;5027360;28;20480;-91
2023/01/11 03:51:40;;;;;;;4.72;1.58;;;;;;;11.53;94.90;100550.31;5029259;28;20024;-93
2023/01/11 03:54:09;;;;;;;1.85;1.50;;;;;;;11.74;94.58;100551.88;5025621;28;20713;-92
2023/01/11 03:56:43;;;;;;;1.65;1.55;;;;;;;11.55;95.29;100562.50;5010310;28;20741;-92
2023/01/11 03:59:09;;;;;;;1.73;1.63;;;;;;;11.58;95.25;100557.09;5027071;28;20025;-91
2023/01/11 04:01:36;;;;;;;1.60;1.50;;;;;;;11.51;95.53;100558.31;5015551;28;20519;-92
2023/01/11 04:04:01;;;;;;;1.30;1.20;;;;;;;11.55;95.34;100565.16;5027386;28;20040;-92
2023/01/11 04:06:26;;;;;;;4.30;1.50;;;;;;;11.62;94.68;100563.09;5011461;28;20021;-92
2023/01/11 04:08:52;;;;;;;1.58;1.48;;;;;;;11.69;94.17;100569.78;5028667;28;20273;-91
2023/01/11 04:11:17;;;;;;;2.92;1.40;;;;;;;11.59;95.02;100568.53;5005233;28;20536;-91
2023/01/11 04:13:42;;;;;;;2.50;1.67;;;;;;;11.58;95.38;100562.38;5027803;28;20624;-92
2023/01/11 04:16:07;;;;;;;2.78;1.65;;;;;;;11.63;95.04;100565.66;5028383;28;20033;-92
2023/01/11 04:18:33;;;;;;;1.30;1.20;;;;;;;11.71;94.76;100576.75;5029792;28;20108;-92
2023/01/11 04:20:58;;;;;;;2.78;2.10;;;;;;;11.63;95.09;100578.91;5030497;28;20506;-92
2023/01/11 04:23:24;;;;;;;2.08;1.63;;;;;;;11.79;94.24;100572.84;5010418;28;20036;-90
2023/01/11 04:25:49;;;;;;;2.55;1.95;;;;;;;11.85;93.61;100581.38;5030412;28;20032;-92
2023/01/11 04:28:14;;;;;;;2.67;1.92;;;;;;;11.88;93.79;100575.06;5011102;28;20037;-91
2023/01/11 04:30:40;;;;;;;1.95;1.85;;;;;;;11.98;93.20;100571.00;5009086;28;20030;-91
2023/01/11 04:33:05;;;;;;;1.85;1.70;;;;;;;12.03;92.98;100574.31;5029767;28;20377;-92
2023/01/11 04:35:30;;;;;;;2.90;2.10;;;;;;;12.09;93.02;100583.75;5030147;28;20033;-92
2023/01/11 04:37:56;;;;;;;3.47;2.00;;;;;;;12.12;92.41;100583.56;5030178;28;20025;-91
2023/01/11 04:40:22;;;;;;;4.07;2.22;;;;;;;12.11;92.31;100588.00;5028333;28;20040;-92
2023/01/11 04:42:48;;;;;;;2.30;2.10;;;;;;;12.20;91.99;100597.28;4974945;28;1036783;-92
2023/01/11 04:45:13;;;;;;;2.53;2.33;;;;;;;12.14;91.95;100594.97;5028298;28;20073;-91
2023/01/11 04:47:38;;;;;;;3.25;1.90;;;;;;;12.14;91.91;100592.31;5027959;28;20076;-92
2023/01/11 04:50:04;;;;;;;3.20;2.03;;;;;;;12.18;91.84;100607.13;5028523;28;20053;-90
2023/01/11 04:52:30;;;;;;;2.58;1.90;;;;;;;12.17;92.37;100598.31;5022887;28;20037;-93
2023/01/11 04:54:55;;;;;;;3.33;2.30;;;;;;;12.17;92.03;100600.97;5029035;28;20036;-92
2023/01/11 04:57:21;;;;;;;2.22;1.50;;;;;;;12.18;92.33;100599.19;5027390;28;20500;-92
2023/01/11 04:59:47;;;;;;;1.75;1.65;;;;;;;12.21;91.61;100602.50;5024724;28;20029;-92
2023/01/11 05:02:14;;;;;;;3.33;2.03;;;;;;;12.26;91.35;100607.56;4995853;28;20029;-92
2023/01/11 05:04:39;;;;;;;2.10;1.92;;;;;;;12.27;91.20;100611.97;5008018;28;20520;-91
2023/01/11 05:07:06;;;;;;;2.13;2.00;;;;;;;12.18;91.29;100599.19;5021958;28;20021;-91
2023/01/11 05:09:31;;;;;;;1.98;1.65;;;;;;;12.18;91.41;100592.09;5006790;28;20028;-92
2023/01/11 05:11:57;;;;;;;1.70;1.50;;;;;;;12.24;91.05;100601.50;5027798;28;20029;-92
2023/01/11 05:14:22;;;;;;;2.72;1.75;;;;;;;12.23;90.94;100605.97;5027813;28;20030;-93
2023/01/11 05:16:47;;;;;;;1.92;1.70;;;;;;;12.23;90.73;100599.81;5009071;28;20519;-92
2023/01/11 05:19:12;;;;;;;1.75;1.50;;;;;;;12.27;91.02;100608.47;5011234;28;20039;-92
2023/01/11 05:21:40;;;;;;;1.63;1.52;;;;;;;12.31;90.48;100604.69;5030543;28;20025;-92
2023/01/11 05:24:11;;;;;;;3.00;1.90;;;;;;;12.47;89.41;100621.53;5026622;28;20049;-92
2023/01/11 05:26:38;;;;;;;3.15;2.22;;;;;;;12.42;89.54;100626.22;5010801;28;20392;-92
2023/01/11 05:29:06;;;;;;;2.47;2.00;;;;;;;12.40;89.86;100633.38;5009312;28;20070;-93
2023/01/11 05:31:33;;;;;;;2.67;2.20;;;;;;;12.43;89.59;100628.78;5013252;28;20389;-92
2023/01/11 05:33:58;;;;;;;2.90;2.30;;;;;;;12.43;89.94;100634.09;5028190;28;20112;-93
2023/01/11 05:36:25;;;;;;;2.70;2.20;;;;;;;12.41;89.58;100640.44;5028087;28;20139;-92
2023/01/11 05:38:52;;;;;;;3.75;2.40;;;;;;;12.39;89.41;100634.34;5026159;28;20567;-92
2023/01/11 05:41:20;;;;;;;4.30;3.90;;;;;;;12.40;89.56;100630.72;5027984;28;20100;-92
2023/01/11 05:46:33;;;;;;;4.07;3.33;;;;;;;12.40;89.29;100625.44;5027312;28;20044;-92
2023/01/11 05:48:58;;;;;;;5.75;4.20;;;;;;;12.37;89.24;100633.56;5009519;28;20112;-93
2023/01/11 05:51:25;;;;;;;7.15;3.95;;;;;;;12.44;88.94;100627.84;5029378;28;21352;-92
2023/01/11 05:53:51;;;;;;;5.68;4.78;;;;;;;12.45;88.35;100636.66;5024042;28;20104;-92
2023/01/11 05:56:18;;;;;;;7.00;4.60;;;;;;;12.48;88.25;100632.06;5019887;28;20037;-93
2023/01/11 05:58:46;;;;;;;5.75;4.97;;;;;;;12.46;88.43;100635.75;5026112;28;20025;-94
2023/01/11 06:01:12;;;;;;;5.95;4.93;;;;;;;12.49;88.10;100640.88;5025836;28;20084;-93
2023/01/11 06:03:37;;;;;;;8.13;5.53;;;;;;;12.54;87.94;100651.25;5005398;28;20045;-93
2023/01/11 06:06:02;;;;;;;7.72;4.68;;;;;;;12.52;87.90;100646.88;5028977;28;20103;-94
2023/01/11 06:08:27;;;;;;;7.95;4.38;;;;;;;12.45;87.29;100641.97;5009821;28;20033;-90
2023/01/11 06:10:54;;;;;;;11.90;3.55;;;;;;;12.42;86.44;100660.69;5027125;28;20034;-94
2023/01/11 06:13:27;;;;;;;7.88;3.30;;;;;;;12.37;85.98;100668.03;5008069;28;20045;-92
2023/01/11 06:16:01;;;;;;;8.23;3.35;;;;;;;12.31;86.00;100668.31;5027319;28;20111;-93
2023/01/11 06:18:29;;;;;;;6.65;3.13;;;;;;;12.27;85.35;100664.13;5008112;28;20033;-92
2023/01/11 06:20:55;;;;;;;8.23;3.70;;;;;;;12.17;85.84;100671.66;5007740;28;20079;-92
2023/01/11 06:23:21;;;;;;;8.18;3.08;;;;;;;12.23;85.91;100677.53;5025146;28;20337;-92
2023/01/11 06:25:46;;;;;;;9.93;3.92;;;;;;;12.16;85.16;100676.09;5028970;28;20021;-91
2023/01/11 06:28:12;;;;;;;13.05;3.30;;;;;;;12.16;84.64;100689.34;5023900;28;20039;-91
2023/01/11 06:30:38;;;;;;;8.05;2.40;;;;;;;11.80;86.20;100699.91;5009897;28;20017;-91
2023/01/11 06:33:05;;;;;;;6.35;2.38;;;;;;;11.64;86.55;100685.66;5027127;28;20033;-93
2023/01/11 06:35:41;;;;;;;14.18;2.67;;;;;;;11.64;86.59;100699.75;5021804;28;20037;-93
2023/01/11 06:38:09;;;;;;;12.57;2.83;;;;;;;11.57;86.75;100702.78;5028411;28;20029;-91
2023/01/11 06:40:35;;;;;;;9.68;2.30;;;;;;;11.50;86.70;100710.13;5026552;28;20516;-91
2023/01/11 06:43:01;;;;;;;11.43;2.22;;;;;;;11.47;87.01;100718.22;5007532;28;20041;-93
2023/01/11 06:45:26;;;;;;;8.73;1.98;;;;;;;11.43;86.55;100729.91;5026750;28;20034;-92
2023/01/11 06:47:51;;;;;;;6.00;1.90;;;;;;;11.37;86.22;100728.38;5010873;28;20095;-92
2023/01/11 06:50:17;;;;;;;10.60;3.17;;;;;;;11.43;86.79;100719.31;5009120;28;20040;-92
2023/01/11 06:52:42;;;;;;;13.93;2.88;;;;;;;11.32;86.50;100710.97;5023769;28;20161;-92
2023/01/11 06:55:08;;;;;;;15.82;2.80;;;;;;;11.34;86.24;100739.09;5002536;28;20030;-92
2023/01/11 06:57:33;;;;;;;13.73;2.63;;;;;;;11.32;85.74;100745.38;5028150;28;20381;-92
2023/01/11 06:59:59;;;;;;;12.30;2.80;;;;;;;11.29;86.22;100750.84;5026289;28;20045;-92
2023/01/11 07:02:24;;;;;;;13.18;2.50;;;;;;;11.28;85.81;100749.94;5027295;28;20122;-92
2023/01/11 07:04:49;;;;;;;10.70;2.40;;;;;;;11.24;86.33;100748.41;5005379;28;20021;-92
2023/01/11 07:07:15;;;;;;;17.48;3.67;;;;;;;11.23;86.18;100749.28;5011535;28;20525;-92
2023/01/11 07:09:40;;;;;;;12.07;2.20;;;;;;;11.23;86.31;100749.28;5008232;28;20026;-93
2023/01/11 07:12:05;;;;;;;15.85;3.15;;;;;;;11.23;86.29;100757.22;5008709;28;20037;-92
2023/01/11 07:14:30;;;;;;;9.52;2.45;;;;;;;11.21;85.87;100757.31;5029956;28;20021;-92
2023/01/11 07:16:56;;;;;;;18.42;2.92;;;;;;;11.23;86.08;100776.63;5010187;28;20030;-91
2023/01/11 07:19:21;;;;;;;14.88;2.80;;;;;;;11.15;86.08;100770.81;5029699;28;20030;-93
2023/01/11 07:21:46;;;;;;;20.73;2.78;;;;;;;11.17;85.86;100773.38;5028044;28;20481;-91
2023/01/11 07:24:12;;;;;;;19.73;2.72;;;;;;;11.17;85.57;100787.47;5029976;28;20025;-93
2023/01/11 07:26:40;;;;;;;19.83;3.38;;;;;;;11.13;85.30;100788.53;5004558;28;20036;-91
2023/01/11 07:29:09;;;;;;;19.55;3.95;;;;;;;11.12;85.21;100794.75;5029475;28;20018;-92
2023/01/11 07:31:35;;;;;;;14.50;2.95;;;;;;;11.08;85.91;100787.88;5009385;28;20025;-92
2023/01/11 07:34:00;;;;;;;15.40;2.83;;;;;;;11.09;84.61;100805.47;4999997;28;20037;-91
2023/01/11 07:36:25;;;;;;;18.67;3.72;;;;;;;11.03;84.64;100795.16;5007489;28;20033;-92
2023/01/11 07:38:51;;;;;;;14.77;2.60;;;;;;;10.97;84.80;100792.78;5032499;28;20758;-91
2023/01/11 07:44:00;;;;;;;20.88;3.40;;;;;;;10.95;84.78;100815.78;5012972;28;20053;-92
2023/01/11 07:46:26;;;;;;;14.07;2.55;;;;;;;10.90;84.89;100812.47;5012148;28;20026;-92
2023/01/11 07:48:51;;;;;;;14.38;2.78;;;;;;;10.89;85.16;100821.31;4993397;28;20022;-92
2023/01/11 07:51:19;;;;;;;13.13;2.65;;;;;;;10.82;84.18;100812.81;5007854;28;20084;-91
2023/01/11 07:53:45;;;;;;;14.65;2.70;;;;;;;10.80;84.24;100817.28;4992777;28;20030;-91
2023/01/11 07:56:11;;;;;;;9.27;2.42;;;;;;;10.80;84.07;100841.06;4992407;28;20088;-93
2023/01/11 07:58:36;;;;;;;17.42;3.08;;;;;;;10.78;83.53;100842.94;4995761;28;20037;-93
2023/01/11 08:01:02;;;;;;;12.70;2.45;;;;;;;10.76;83.80;100852.69;4993930;28;20461;-92
2023/01/11 08:03:27;;;;;;;14.50;2.67;;;;;;;10.76;83.56;100847.41;5012852;28;20033;-93
2023/01/11 08:05:53;;;;;;;15.13;2.97;;;;;;;10.68;82.91;100844.25;4992449;28;20026;-93
2023/01/11 08:08:18;;;;;;;12.90;1.90;;;;;;;10.66;82.72;100846.06;4991415;28;20033;-92
2023/01/11 08:10:44;;;;;;;19.92;2.88;;;;;;;10.65;84.15;100860.22;4993212;28;20062;-91
2023/01/11 08:15:56;;;;;;;12.80;2.92;;;;;;;10.57;83.98;100857.88;5010819;28;20040;-92
2023/01/11 08:18:22;;;;;;;12.77;2.60;;;;;;;10.52;83.91;100857.19;4995374;28;20164;-93
2023/01/11 08:20:51;;;;;;;22.52;2.85;;;;;;;10.57;83.25;100884.31;5009292;28;20026;-92
2023/01/11 08:23:17;;;;;;;13.55;2.83;;;;;;;10.62;82.93;100881.47;5010719;28;20537;-93
2023/01/11 08:25:42;;;;;;;17.30;2.53;;;;;;;10.48;83.80;100887.31;5012006;28;20132;-92
2023/01/11 08:28:09;;;;;;;11.85;3.15;;;;;;;10.43;83.32;100892.78;4994108;28;20025;-93
2023/01/11 08:30:35;;;;;;;12.48;2.67;;;;;;;10.43;83.18;100907.78;5009312;28;21013;-93
2023/01/11 08:33:01;;;;;;;18.80;2.72;;;;;;;10.32;83.12;100908.19;4994452;28;20018;-93
2023/01/11 08:35:27;;;;;;;20.25;3.22;;;;;;;10.38;83.13;100922.94;4992866;28;20490;-92
2023/01/11 08:37:52;;;;;;;16.27;2.47;;;;;;;10.35;83.73;100921.31;4996200;28;20125;-92
2023/01/11 08:40:18;;;;;;;17.95;2.83;;;;;;;10.34;83.25;100921.34;5010296;28;20036;-93
2023/01/11 08:42:43;;;;;;;13.68;2.90;;;;;;;10.36;82.78;100938.88;4995056;28;20218;-92
2023/01/11 08:45:08;;;;;;;15.90;3.25;;;;;;;10.36;83.12;100945.94;4980097;28;20089;-92
2023/01/11 08:47:34;;;;;;;16.65;3.28;;;;;;;10.28;82.87;100935.66;5001334;28;20371;-93
2023/01/11 08:49:59;;;;;;;22.83;3.20;;;;;;;10.32;82.96;100946.97;5006713;28;20022;-93
2023/01/11 08:52:24;;;;;;;18.67;3.28;;;;;;;10.27;82.83;100948.94;5004521;28;20040;-92
2023/01/11 08:54:49;;;;;;;17.67;4.10;;;;;;;10.27;82.54;100954.22;5000238;28;20034;-92
2023/01/11 08:57:15;;;;;;;15.05;2.75;;;;;;;10.29;82.49;100961.16;4982109;28;20113;-91
2023/01/11 08:59:40;;;;;;;14.95;2.45;;;;;;;10.27;82.76;100962.13;4989830;28;20121;-92
2023/01/11 09:02:05;;;;;;;13.63;3.35;;;;;;;10.25;82.84;100971.88;4978581;28;20028;-93
2023/01/11 09:04:32;;;;;;;15.07;2.63;;;;;;;10.24;83.12;100978.94;5005245;28;20445;-93
2023/01/11 09:06:58;;;;;;;13.48;2.08;;;;;;;10.21;82.68;100974.63;5009798;28;20041;-91
2023/01/11 09:09:23;;;;;;;15.07;2.65;;;;;;;10.20;83.13;100979.94;5002107;28;20362;-92
2023/01/11 09:11:56;;;;;;;13.70;2.35;;;;;;;10.16;83.16;100965.97;4998345;28;20068;-93
2023/01/11 09:14:23;;;;;;;15.02;2.65;;;;;;;10.15;82.97;100964.25;4997821;28;20058;-92
2023/01/11 09:16:50;;;;;;;16.80;2.60;;;;;;;10.11;82.04;100960.00;5001287;28;20084;-92
2023/01/11 09:19:15;;;;;;;11.30;2.10;;;;;;;10.16;82.36;100959.84;4983326;28;20058;-90
2023/01/11 09:21:41;;;;;;;15.65;2.00;;;;;;;10.20;82.04;100964.94;4994069;28;20461;-93
2023/01/11 09:24:06;;;;;;;18.02;2.40;;;;;;;10.14;82.28;100962.53;4976248;28;20019;-93
2023/01/11 09:26:32;;;;;;;16.48;2.55;;;;;;;10.13;82.12;100967.91;4995435;28;20037;-92
2023/01/11 09:28:57;;;;;;;18.25;3.92;;;;;;;10.14;82.16;100965.19;4991744;28;20092;-93
2023/01/11 09:31:22;;;;;;;13.32;2.55;;;;;;;10.12;81.75;100977.59;4997370;28;20038;-94
2023/01/11 09:33:48;;;;;;;11.60;2.30;;;;;;;10.15;81.93;100988.03;4991610;28;20391;-91
2023/01/11 09:36:20;;;;;;;13.95;2.90;;;;;;;10.13;82.34;100989.88;4976605;28;20022;-93
2023/01/11 09:38:47;;;;;;;;;;;;;;;10.34;81.77;101003.25;5001498;28;20084;-93
2023/01/11 09:41:40;;;;;;;12.52;2.28;;;;;;;10.45;81.07;101004.59;4999846;28;19924;-93
2023/01/11 09:44:14;;;;;;;14.35;2.40;;;;;;;10.47;80.59;100996.59;4995084;28;20042;-92
2023/01/11 09:46:45;;;;;;;15.80;2.50;;;;;;;11.23;79.18;101013.94;4994841;28;20536;-94
2023/01/11 09:49:21;;;;;;;16.88;3.10;;;;;;;12.00;77.38;101009.84;5003189;28;20061;-94
2023/01/11 09:51:50;;;;;;;10.38;1.80;;;;;;;12.89;72.34;101007.63;5003602;28;20076;-95
2023/01/11 09:54:24;;;;;;;16.20;2.75;;;;;;;13.06;73.93;101018.31;4992289;28;20033;-94
2023/01/11 09:57:09;;;;;;;10.20;1.92;;;;;;;13.19;72.48;101023.88;4984135;28;20088;-95
2023/01/11 09:59:49;;;;;;;13.40;2.85;;;;;;;12.97;71.34;101013.44;4984171;28;20062;-95
2023/01/11 10:02:36;;;;;;;14.30;2.80;;;;;;;12.80;73.32;101022.19;4975872;28;20025;-94
2023/01/11 10:05:24;;;;;;;10.88;2.10;;;;;;;14.42;69.28;101007.94;4979895;28;20041;-96
2023/01/11 10:08:23;;;;;;;14.73;2.17;;;;;;;15.74;66.49;101002.28;4988884;28;20081;-95
2023/01/11 10:11:07;;;;;;;11.63;2.20;;;;;;;16.78;62.79;101016.41;5000528;28;20037;-92
2023/01/11 10:13:53;;;;;;;11.75;2.40;;;;;;;17.30;58.39;101018.44;4985330;28;20036;-96
2023/01/11 10:16:45;;;;;;;15.38;2.20;;;;;;;17.79;57.17;101021.41;4990233;28;20041;-93
2023/01/11 10:19:21;;;;;;;13.95;2.40;;;;;;;18.51;56.91;101010.19;4995303;28;20021;-95
2023/01/11 10:21:53;;;;;;;6.70;1.88;;;;;;;19.00;55.25;101010.25;4990709;28;20070;-95
2023/01/11 10:24:36;;;;;;;9.30;2.20;;;;;;;19.35;53.40;101030.94;5000060;28;20034;-94
2023/01/11 10:27:08;;;;;;;11.32;2.47;;;;;;;19.03;51.24;101027.97;4986037;28;20050;-96
2023/01/11 10:32:50;;;;;;;8.98;2.28;;;;;;;19.28;52.31;101022.50;4997564;28;20033;-96
2023/01/11 10:35:32;;;;;;;11.57;2.45;;;;;;;18.82;52.18;101016.94;5005946;28;20040;-96
2023/01/11 10:38:22;;;;;;;8.48;2.17;;;;;;;18.26;51.12;101006.56;5000509;28;20026;-96
2023/01/11 10:41:05;;;;;;;13.35;2.50;;;;;;;18.28;53.42;101020.72;5003185;28;20409;-96
2023/01/11 10:43:36;;;;;;;9.77;2.55;;;;;;;18.87;51.77;101022.84;4991273;28;20498;-96
2023/01/11 10:46:21;;;;;;;11.18;2.20;;;;;;;19.18;52.80;101016.09;5005212;28;20033;-95
2023/01/11 10:48:56;;;;;;;12.00;2.25;;;;;;;19.45;50.36;101015.03;4992220;28;20026;-96
2023/01/11 10:51:36;;;;;;;10.20;2.47;;;;;;;19.71;50.30;101024.69;5003881;28;20505;-94
2023/01/11 10:54:12;;;;;;;10.60;2.28;;;;;;;19.85;48.35;101012.91;5006405;28;20026;-94
2023/01/11 10:57:06;;;;;;;11.95;2.38;;;;;;;19.36;50.98;101020.13;4990922;28;20116;-95
2023/01/11 11:00:09;;;;;;;12.85;2.55;;;;;;;20.11;51.02;101021.66;4988649;28;20026;-96
2023/01/11 11:03:00;;;;;;;;;;;;;;;20.39;48.14;101026.56;4999518;28;20042;-96
2023/01/11 11:05:38;;;;;;;13.75;2.80;;;;;;;20.84;46.54;101029.31;5001162;28;19917;-96
2023/01/11 11:08:35;;;;;;;11.95;2.58;;;;;;;21.18;46.84;101026.59;4997710;28;20030;-96
2023/01/11 11:11:09;;;;;;;13.52;2.63;;;;;;;21.68;47.88;101029.63;5012121;28;20029;-95
2023/01/11 11:13:58;;;;;;;14.55;2.67;;;;;;;21.53;42.79;101037.13;5010936;28;20034;-96
2023/01/11 11:16:23;;;;;;;9.40;2.38;;;;;;;20.54;45.13;101037.13;5019207;28;20385;-96
2023/01/11 11:18:50;;;;;;;13.30;2.53;;;;;;;20.27;46.77;101032.91;5016600;28;20042;-96
2023/01/11 11:21:25;;;;;;;11.38;2.53;;;;;;;21.31;49.49;101039.88;5003003;28;20283;-96
2023/01/11 11:23:59;;;;;;;9.48;2.50;;;;;;;21.50;42.81;101026.66;5002975;28;20385;-94
2023/01/11 11:26:32;;;;;;;11.38;2.45;;;;;;;21.00;43.76;101020.88;5010980;28;20066;-95
2023/01/11 11:29:09;;;;;;;8.63;2.35;;;;;;;21.51;44.82;101022.13;4989915;28;20124;-95
2023/01/11 11:31:40;;;;;;;7.45;2.13;;;;;;;21.77;42.20;101028.84;5009792;28;20092;-93
2023/01/11 11:34:20;;;;;;;14.80;2.85;;;;;;;21.00;43.27;101036.13;5011030;28;20066;-94
2023/01/11 11:36:48;;;;;;;12.18;2.35;;;;;;;21.13;47.43;101043.09;5000631;28;20095;-96
2023/01/11 11:39:24;;;;;;;15.48;2.50;;;;;;;20.62;45.00;101040.06;4991301;28;20453;-96
2023/01/11 11:41:55;;;;;;;12.23;2.58;;;;;;;20.58;45.95;101047.50;4989202;28;20038;-94
2023/01/11 11:44:23;;;;;;;11.45;2.22;;;;;;;20.95;45.99;101049.09;5025277;28;20049;-95
2023/01/11 11:46:56;;;;;;;12.10;2.38;;;;;;;20.45;46.08;101043.19;5028718;28;20029;-95
2023/01/11 11:49:22;;;;;;;13.18;3.75;;;;;;;20.77;41.80;101044.22;5012602;28;20222;-96
2023/01/11 11:51:49;;;;;;;11.52;2.50;;;;;;;19.99;44.05;101031.50;5010162;28;20112;-94
2023/01/11 11:54:35;;;;;;;11.65;2.75;;;;;;;20.38;45.50;101037.44;5033251;28;20033;-94
2023/01/11 11:57:26;;;;;;;12.85;3.05;;;;;;;20.72;44.43;101051.78;5031014;28;20052;-95
2023/01/11 12:00:04;;;;;;;11.48;2.50;;;;;;;20.80;43.93;101053.88;5026220;28;20370;-95
2023/01/11 12:02:31;;;;;;;10.57;2.70;;;;;;;20.64;43.16;101038.94;5026676;28;20025;-96